createdAt,value
2023-02-04T00:01:20.847Z,3.66
2023-02-04T00:03:49.162Z,3.25
2023-02-04T00:06:17.507Z,3.45
2023-02-04T00:08:45.968Z,3.48
2023-02-04T00:11:14.253Z,3.25
2023-02-04T00:13:42.555Z,3.31
2023-02-04T00:16:13.617Z,2.58
2023-02-04T00:18:43.386Z,3.31
2023-02-04T00:21:12.202Z,3.39
2023-02-04T00:23:40.593Z,3.50
2023-02-04T00:26:08.994Z,3.34
2023-02-04T00:28:37.309Z,3.47
2023-02-04T00:31:05.709Z,3.10
2023-02-04T00:33:33.995Z,2.64
2023-02-04T00:36:03.684Z,3.14
2023-02-04T00:38:31.960Z,2.91
2023-02-04T00:41:00.324Z,2.75
2023-02-04T00:43:28.646Z,2.43
2023-02-04T00:45:56.917Z,1.95
2023-02-04T00:48:26.765Z,2.10
2023-02-04T00:50:55.339Z,2.18
2023-02-04T00:53:25.101Z,2.12
2023-02-04T00:55:53.396Z,3.38
2023-02-04T00:58:21.690Z,3.57
2023-02-04T01:00:49.993Z,3.27
2023-02-04T01:03:21.291Z,3.07
2023-02-04T01:05:51.998Z,2.78
2023-02-04T01:08:20.275Z,2.65
2023-02-04T01:10:50.013Z,3.26
2023-02-04T01:13:18.305Z,3.36
2023-02-04T01:15:47.068Z,3.40
2023-02-04T01:18:21.267Z,3.30
2023-02-04T01:20:49.640Z,3.32
2023-02-04T01:23:18.000Z,2.91
2023-02-04T01:25:46.323Z,2.78
2023-02-04T01:28:16.021Z,2.69
2023-02-04T01:30:44.422Z,2.46
2023-02-04T01:33:12.830Z,2.41
2023-02-04T01:35:41.085Z,2.48
2023-02-04T01:38:09.380Z,2.34
2023-02-04T01:40:37.704Z,2.76
2023-02-04T01:43:06.334Z,2.87
2023-02-04T01:45:39.720Z,2.58
2023-02-04T01:48:09.488Z,2.43
2023-02-04T01:50:37.810Z,2.29
2023-02-04T01:53:06.175Z,2.53
2023-02-04T01:55:34.758Z,2.58
2023-02-04T01:58:03.448Z,2.75
2023-02-04T02:00:35.758Z,2.86
2023-02-04T02:03:05.521Z,2.77
2023-02-04T02:05:38.719Z,1.88
2023-02-04T02:08:08.246Z,2.82
2023-02-04T02:10:38.880Z,3.18
2023-02-04T02:13:08.699Z,2.73
2023-02-04T02:15:37.163Z,2.89
2023-02-04T02:18:07.167Z,3.09
2023-02-04T02:20:35.612Z,3.09
2023-02-04T02:23:07.958Z,2.93
2023-02-04T02:25:38.081Z,2.91
2023-02-04T02:28:12.913Z,2.62
2023-02-04T02:30:41.769Z,2.96
2023-02-04T02:33:10.413Z,2.81
2023-02-04T02:35:39.033Z,2.72
2023-02-04T02:38:07.349Z,2.95
2023-02-04T02:40:35.657Z,3.06
2023-02-04T02:43:06.137Z,2.97
2023-02-04T02:45:36.000Z,2.85
2023-02-04T02:48:04.483Z,2.47
2023-02-04T02:50:34.784Z,2.84
2023-02-04T02:53:04.348Z,2.85
2023-02-04T02:55:33.275Z,2.54
2023-02-04T02:58:02.298Z,2.32
2023-02-04T03:00:32.360Z,1.60
2023-02-04T03:03:03.566Z,2.10
2023-02-04T03:05:37.290Z,2.17
2023-02-04T03:08:06.771Z,1.91
2023-02-04T03:10:35.529Z,1.91
2023-02-04T03:13:04.357Z,2.01
2023-02-04T03:15:35.909Z,2.19
2023-02-04T03:18:04.651Z,2.24
2023-02-04T03:20:34.339Z,2.17
2023-02-04T03:23:02.795Z,1.95
2023-02-04T03:25:31.221Z,1.84
2023-02-04T03:28:00.677Z,1.41
2023-02-04T03:30:29.544Z,1.72
2023-02-04T03:32:59.536Z,1.73
2023-02-04T03:35:27.801Z,1.75
2023-02-04T03:37:56.299Z,1.75
2023-02-04T03:40:24.573Z,2.19
2023-02-04T03:42:52.903Z,2.03
2023-02-04T03:45:21.323Z,1.59
2023-02-04T03:47:49.636Z,1.80
2023-02-04T03:50:19.592Z,1.97
2023-02-04T03:52:49.137Z,1.54
2023-02-04T03:55:17.467Z,1.26
2023-02-04T03:57:45.939Z,1.61
2023-02-04T04:00:15.335Z,0.97
2023-02-04T04:02:43.620Z,1.22
2023-02-04T04:05:12.775Z,1.74
2023-02-04T04:07:42.500Z,1.52
2023-02-04T04:10:11.270Z,1.17
2023-02-04T04:12:39.668Z,1.55
2023-02-04T04:15:08.726Z,1.82
2023-02-04T04:17:37.167Z,1.53
2023-02-04T04:20:06.194Z,1.57
2023-02-04T04:22:34.982Z,1.33
2023-02-04T04:25:04.909Z,1.62
2023-02-04T04:27:33.499Z,1.83
2023-02-04T04:30:01.800Z,1.37
2023-02-04T04:32:30.163Z,0.88
2023-02-04T04:34:58.427Z,1.46
2023-02-04T04:37:26.762Z,1.43
2023-02-04T04:39:55.023Z,1.26
2023-02-04T04:42:24.762Z,2.09
2023-02-04T04:44:52.992Z,2.17
2023-02-04T04:47:21.338Z,0.67
2023-02-04T04:49:49.691Z,1.66
2023-02-04T04:52:17.916Z,2.32
2023-02-04T04:54:49.242Z,2.42
2023-02-04T04:57:17.614Z,2.66
2023-02-04T04:59:47.345Z,2.70
2023-02-04T05:02:15.712Z,2.17
2023-02-04T05:04:44.033Z,2.41
2023-02-04T05:07:12.274Z,2.23
2023-02-04T05:09:40.599Z,2.11
2023-02-04T05:12:08.916Z,2.20
2023-02-04T05:14:37.247Z,1.31
2023-02-04T05:17:06.999Z,1.40
2023-02-04T05:19:35.381Z,1.28
2023-02-04T05:22:06.591Z,1.34
2023-02-04T05:24:34.881Z,0.06
2023-02-04T05:27:03.106Z,0.90
2023-02-04T05:29:31.356Z,1.16
2023-02-04T05:32:00.335Z,1.22
2023-02-04T05:34:30.101Z,1.47
2023-02-04T05:36:58.376Z,1.34
2023-02-04T05:39:26.689Z,1.33
2023-02-04T05:41:54.913Z,1.52
2023-02-04T05:44:23.301Z,0.97
2023-02-04T05:46:51.637Z,0.96
2023-02-04T05:49:19.888Z,1.40
2023-02-04T05:51:49.542Z,1.54
2023-02-04T05:54:20.674Z,1.25
2023-02-04T05:56:49.295Z,1.57
2023-02-04T05:59:17.604Z,1.76
2023-02-04T06:01:45.915Z,1.74
2023-02-04T06:04:15.631Z,1.56
2023-02-04T06:06:44.111Z,1.16
2023-02-04T06:09:14.649Z,1.82
2023-02-04T06:11:42.946Z,1.97
2023-02-04T06:14:12.009Z,1.72
2023-02-04T06:16:40.379Z,0.96
2023-02-04T06:19:08.712Z,2.29
2023-02-04T06:21:37.003Z,1.58
2023-02-04T06:24:05.608Z,2.90
2023-02-04T06:26:35.343Z,3.38
2023-02-04T06:29:03.552Z,3.63
2023-02-04T06:31:32.202Z,4.04
2023-02-04T06:34:00.741Z,4.15
2023-02-04T06:36:29.104Z,4.34
2023-02-04T06:38:57.612Z,4.48
2023-02-04T06:41:25.920Z,4.77
2023-02-04T06:43:55.517Z,5.03
2023-02-04T06:46:23.845Z,5.08
2023-02-04T06:48:52.152Z,5.31
2023-02-04T06:51:20.408Z,5.06
2023-02-04T06:53:48.775Z,5.26
2023-02-04T06:56:17.035Z,4.58
2023-02-04T06:58:45.326Z,4.66
2023-02-04T07:01:15.103Z,4.89
2023-02-04T07:03:43.441Z,4.33
2023-02-04T07:06:11.689Z,4.42
2023-02-04T07:08:40.035Z,4.51
2023-02-04T07:11:08.789Z,4.45
2023-02-04T07:13:37.147Z,4.66
2023-02-04T07:16:06.344Z,4.54
2023-02-04T07:18:36.059Z,5.40
2023-02-04T07:21:04.433Z,6.38
2023-02-04T07:23:32.788Z,6.29
2023-02-04T07:26:01.170Z,5.99
2023-02-04T07:28:29.542Z,5.32
2023-02-04T07:30:58.010Z,5.54
2023-02-04T07:33:26.381Z,5.73
2023-02-04T07:35:56.711Z,4.78
2023-02-04T07:38:25.185Z,5.82
2023-02-04T07:40:53.442Z,5.97
2023-02-04T07:43:21.998Z,6.04
2023-02-04T07:45:51.373Z,6.17
2023-02-04T07:48:19.968Z,6.42
2023-02-04T07:50:48.328Z,6.01
2023-02-04T07:53:18.129Z,6.06
2023-02-04T07:55:46.464Z,6.56
2023-02-04T07:58:14.815Z,6.85
2023-02-04T08:00:43.135Z,6.96
2023-02-04T08:03:13.863Z,6.20
2023-02-04T08:05:42.080Z,6.31
2023-02-04T08:08:10.413Z,6.61
2023-02-04T08:10:40.162Z,6.07
2023-02-04T08:13:08.741Z,7.07
2023-02-04T08:15:36.997Z,6.59
2023-02-04T08:18:05.467Z,7.19
2023-02-04T08:20:34.038Z,7.41
2023-02-04T08:23:02.481Z,7.61
2023-02-04T08:25:30.923Z,7.54
2023-02-04T08:28:00.714Z,9.12
2023-02-04T08:30:29.174Z,9.96
2023-02-04T08:32:57.468Z,10.59
2023-02-04T08:35:25.898Z,10.83
2023-02-04T08:37:54.107Z,11.83
2023-02-04T08:40:22.497Z,11.69
2023-02-04T08:42:50.769Z,11.29
2023-02-04T08:45:21.264Z,12.04
2023-02-04T08:47:49.525Z,13.20
2023-02-04T08:50:18.384Z,13.15
2023-02-04T08:52:46.686Z,12.53
2023-02-04T08:55:16.042Z,10.62
2023-02-04T08:57:44.259Z,11.54
2023-02-04T09:00:14.016Z,11.76
2023-02-04T09:02:43.736Z,11.99
2023-02-04T09:05:12.164Z,12.78
2023-02-04T09:07:40.462Z,12.72
2023-02-04T09:10:09.316Z,13.81
2023-02-04T09:12:37.624Z,12.81
2023-02-04T09:15:06.730Z,13.13
2023-02-04T09:17:35.838Z,14.47
2023-02-04T09:20:06.214Z,15.65
2023-02-04T09:22:34.642Z,15.09
2023-02-04T09:25:02.880Z,15.48
2023-02-04T09:27:31.276Z,17.63
2023-02-04T09:29:59.644Z,17.71
2023-02-04T09:32:27.997Z,16.64
2023-02-04T09:34:56.397Z,16.38
2023-02-04T09:37:27.141Z,17.22
2023-02-04T09:39:55.491Z,15.00
2023-02-04T09:42:26.436Z,14.67
2023-02-04T09:44:55.107Z,14.82
2023-02-04T09:47:25.718Z,15.67
2023-02-04T09:49:54.386Z,15.02
2023-02-04T09:52:24.800Z,14.98
2023-02-04T09:54:54.781Z,15.72
2023-02-04T09:57:23.090Z,14.73
2023-02-04T09:59:54.525Z,15.38
2023-02-04T10:02:25.754Z,15.27
2023-02-04T10:04:58.051Z,15.49
2023-02-04T10:07:27.571Z,14.64
2023-02-04T10:09:57.574Z,14.52
2023-02-04T10:12:27.427Z,14.50
2023-02-04T10:14:55.723Z,15.03
2023-02-04T10:17:24.451Z,15.07
2023-02-04T10:19:53.180Z,15.68
2023-02-04T10:22:23.890Z,15.42
2023-02-04T10:24:52.153Z,13.71
2023-02-04T10:27:21.978Z,13.76
2023-02-04T10:29:57.806Z,13.54
2023-02-04T10:32:29.137Z,15.10
2023-02-04T10:35:02.156Z,14.75
2023-02-04T10:37:32.336Z,15.67
2023-02-04T10:40:00.766Z,15.23
2023-02-04T10:42:32.339Z,15.56
2023-02-04T10:45:01.027Z,14.74
2023-02-04T10:47:31.722Z,13.54
2023-02-04T10:50:04.974Z,13.33
2023-02-04T10:52:37.551Z,14.10
2023-02-04T10:55:08.747Z,14.99
2023-02-04T10:57:41.128Z,13.29
2023-02-04T11:00:18.312Z,14.20
2023-02-04T11:02:49.894Z,14.51
2023-02-04T11:05:20.204Z,13.84
2023-02-04T11:07:50.087Z,14.91
2023-02-04T11:10:20.423Z,12.85
2023-02-04T11:13:03.159Z,13.38
2023-02-04T11:15:47.358Z,13.55
2023-02-04T11:18:30.234Z,14.06
2023-02-04T11:21:00.574Z,15.01
2023-02-04T11:23:37.890Z,14.77
2023-02-04T11:26:13.365Z,14.49
2023-02-04T11:28:49.421Z,13.68
2023-02-04T11:31:42.838Z,13.50
2023-02-04T11:34:25.735Z,14.04
2023-02-04T11:37:14.059Z,14.51
2023-02-04T11:39:44.464Z,14.28
2023-02-04T11:42:22.202Z,13.52
2023-02-04T11:44:54.581Z,13.46
2023-02-04T11:47:25.243Z,15.16
2023-02-04T11:49:59.443Z,15.28
2023-02-04T11:52:27.757Z,15.76
2023-02-04T11:54:57.186Z,14.78
2023-02-04T11:57:25.700Z,13.45
2023-02-04T11:59:55.602Z,13.20
2023-02-04T12:02:26.834Z,13.52
2023-02-04T12:04:57.362Z,11.55
2023-02-04T12:07:27.804Z,11.59
2023-02-04T12:09:56.161Z,11.57
2023-02-04T12:12:26.640Z,12.15
2023-02-04T12:15:15.791Z,11.80
2023-02-04T12:17:46.284Z,11.56
2023-02-04T12:20:15.527Z,12.02
2023-02-04T12:22:43.878Z,12.42
2023-02-04T12:25:16.927Z,11.89
2023-02-04T12:27:45.303Z,12.31
2023-02-04T12:30:15.744Z,12.29
2023-02-04T12:32:43.993Z,11.97
2023-02-04T12:35:12.345Z,11.65
2023-02-04T12:37:40.717Z,11.74
2023-02-04T12:40:10.217Z,11.80
2023-02-04T12:42:38.567Z,11.76
2023-02-04T12:45:07.266Z,11.34
2023-02-04T12:47:36.966Z,11.61
2023-02-04T12:50:05.639Z,12.21
2023-02-04T12:52:34.031Z,11.82
2023-02-04T12:55:02.540Z,11.79
2023-02-04T12:57:30.859Z,12.35
2023-02-04T13:00:00.547Z,13.31
2023-02-04T13:02:29.404Z,13.08
2023-02-04T13:04:59.198Z,14.52
2023-02-04T13:07:27.437Z,14.55
2023-02-04T13:09:55.792Z,14.35
2023-02-04T13:12:24.086Z,14.75
2023-02-04T13:14:52.520Z,16.13
2023-02-04T13:17:20.866Z,14.86
2023-02-04T13:19:49.242Z,16.00
2023-02-04T13:22:18.912Z,14.86
2023-02-04T13:24:52.035Z,14.32
2023-02-04T13:27:20.312Z,13.83
2023-02-04T13:29:48.665Z,14.85
2023-02-04T13:32:17.053Z,14.44
2023-02-04T13:34:45.364Z,14.41
2023-02-04T13:37:13.664Z,13.88
2023-02-04T13:39:43.420Z,13.85
2023-02-04T13:42:11.716Z,14.54
2023-02-04T13:44:39.959Z,14.93
2023-02-04T13:47:08.347Z,15.28
2023-02-04T13:49:36.871Z,14.24
2023-02-04T13:52:05.328Z,14.16
2023-02-04T13:54:34.629Z,14.47
2023-02-04T13:57:06.398Z,13.61
2023-02-04T13:59:34.637Z,13.27
2023-02-04T14:02:02.990Z,12.95
2023-02-04T14:04:31.342Z,12.13
2023-02-04T14:06:59.621Z,11.85
2023-02-04T14:09:27.905Z,11.77
2023-02-04T14:11:56.111Z,11.48
2023-02-04T14:14:25.935Z,11.14
2023-02-04T14:16:54.340Z,10.92
2023-02-04T14:19:24.356Z,11.14
2023-02-04T14:21:53.691Z,11.54
2023-02-04T14:24:22.016Z,12.61
2023-02-04T14:26:50.560Z,12.37
2023-02-04T14:29:19.403Z,12.13
2023-02-04T14:31:50.307Z,10.87
2023-02-04T14:34:18.574Z,10.44
2023-02-04T14:36:46.866Z,10.41
2023-02-04T14:39:15.245Z,10.58
2023-02-04T14:41:43.573Z,10.52
2023-02-04T14:44:11.850Z,10.51
2023-02-04T14:46:41.371Z,9.58
2023-02-04T14:49:11.032Z,10.64
2023-02-04T14:51:39.324Z,10.60
2023-02-04T14:54:07.639Z,10.88
2023-02-04T14:56:36.018Z,10.17
2023-02-04T14:59:04.267Z,9.59
2023-02-04T15:01:32.670Z,9.36
2023-02-04T15:04:01.114Z,9.47
2023-02-04T15:06:30.842Z,9.79
2023-02-04T15:08:59.197Z,9.67
2023-02-04T15:11:27.479Z,9.05
2023-02-04T15:13:56.838Z,9.37
2023-02-04T15:16:25.158Z,10.18
2023-02-04T15:18:53.711Z,10.01
2023-02-04T15:21:41.851Z,9.75
2023-02-04T15:24:10.086Z,9.38
2023-02-04T15:26:38.874Z,9.29
2023-02-04T15:29:07.274Z,9.48
2023-02-04T15:31:35.838Z,9.65
2023-02-04T15:34:06.017Z,9.07
2023-02-04T15:36:51.693Z,9.23
2023-02-04T15:39:40.347Z,9.46
2023-02-04T15:42:26.455Z,9.74
2023-02-04T15:44:54.731Z,9.83
2023-02-04T15:47:23.909Z,9.62
2023-02-04T15:49:52.170Z,9.37
2023-02-04T15:52:25.213Z,9.29
2023-02-04T15:54:55.373Z,9.39
2023-02-04T15:57:23.760Z,9.34
2023-02-04T15:59:51.991Z,9.23
2023-02-04T16:02:20.361Z,9.26
2023-02-04T16:04:48.631Z,8.88
2023-02-04T16:07:17.183Z,8.79
2023-02-04T16:09:45.480Z,8.59
2023-02-04T16:12:15.257Z,8.22
2023-02-04T16:14:43.500Z,8.20
2023-02-04T16:17:11.815Z,8.06
2023-02-04T16:19:40.059Z,8.10
2023-02-04T16:22:08.468Z,7.48
2023-02-04T16:24:36.948Z,7.29
2023-02-04T16:27:05.482Z,7.32
2023-02-04T16:29:35.330Z,7.25
2023-02-04T16:32:03.636Z,7.05
2023-02-04T16:34:31.867Z,6.42
2023-02-04T16:37:00.219Z,6.51
2023-02-04T16:39:28.610Z,6.59
2023-02-04T16:41:56.890Z,6.61
2023-02-04T16:44:25.231Z,6.72
2023-02-04T16:46:57.833Z,6.33
2023-02-04T16:49:26.234Z,5.94
2023-02-04T16:51:54.652Z,5.70
2023-02-04T16:54:22.964Z,5.31
2023-02-04T16:56:52.351Z,5.38
2023-02-04T16:59:20.605Z,5.68
2023-02-04T17:01:49.058Z,5.54
2023-02-04T17:04:18.825Z,5.96
2023-02-04T17:06:47.124Z,6.33
2023-02-04T17:09:15.563Z,6.23
2023-02-04T17:11:43.892Z,6.43
2023-02-04T17:14:16.006Z,6.33
2023-02-04T17:16:44.552Z,5.90
2023-02-04T17:19:13.722Z,5.77
2023-02-04T17:21:43.518Z,5.59
2023-02-04T17:24:12.634Z,5.41
2023-02-04T17:26:41.438Z,5.37
2023-02-04T17:29:11.830Z,5.05
2023-02-04T17:31:40.818Z,4.55
2023-02-04T17:34:09.014Z,4.85
2023-02-04T17:36:40.054Z,4.91
2023-02-04T17:39:09.712Z,5.32
2023-02-04T17:41:37.950Z,5.66
2023-02-04T17:44:06.750Z,6.02
2023-02-04T17:46:35.593Z,6.14
2023-02-04T17:49:04.175Z,5.48
2023-02-04T17:51:33.005Z,5.61
2023-02-04T17:54:01.397Z,5.91
2023-02-04T17:56:34.050Z,6.09
2023-02-04T17:59:02.406Z,5.90
2023-02-04T18:01:30.794Z,5.44
2023-02-04T18:03:59.931Z,5.62
2023-02-04T18:06:31.580Z,5.98
2023-02-04T18:09:02.102Z,5.90
2023-02-04T18:11:37.314Z,5.81
2023-02-04T18:14:13.945Z,5.78
2023-02-04T18:16:42.532Z,5.65
2023-02-04T18:19:18.573Z,5.89
2023-02-04T18:21:51.369Z,5.41
2023-02-04T18:24:21.033Z,5.08
2023-02-04T18:26:52.190Z,5.44
2023-02-04T18:29:32.450Z,5.40
2023-02-04T18:32:03.413Z,5.46
2023-02-04T18:34:36.708Z,5.17
2023-02-04T18:37:30.170Z,5.29
2023-02-04T18:40:26.614Z,5.65
2023-02-04T18:43:06.825Z,5.84
2023-02-04T18:45:36.487Z,5.77
2023-02-04T18:48:48.878Z,6.24
2023-02-04T18:51:25.623Z,6.31
2023-02-04T18:53:58.696Z,6.37
2023-02-04T18:56:27.012Z,6.68
2023-02-04T18:59:00.181Z,6.59
2023-02-04T19:01:28.753Z,6.39
2023-02-04T19:04:00.116Z,6.55
2023-02-04T19:06:30.769Z,6.67
2023-02-04T19:09:09.645Z,6.81
2023-02-04T19:11:40.275Z,6.03
2023-02-04T19:14:19.113Z,5.66
2023-02-04T19:16:51.030Z,5.84
2023-02-04T19:19:35.753Z,6.18
2023-02-04T19:22:17.364Z,5.98
2023-02-04T19:24:49.741Z,5.80
2023-02-04T19:27:30.281Z,6.01
2023-02-04T19:30:01.586Z,6.34
2023-02-04T19:32:45.389Z,6.41
2023-02-04T19:35:21.700Z,6.00
2023-02-04T19:37:57.192Z,5.48
2023-02-04T19:40:29.081Z,5.46
2023-02-04T19:43:05.846Z,5.44
2023-02-04T19:45:36.085Z,5.36
2023-02-04T19:48:16.457Z,5.85
2023-02-04T19:50:44.723Z,6.14
2023-02-04T19:53:19.547Z,6.29
2023-02-04T19:55:49.035Z,6.19
2023-02-04T19:58:20.698Z,5.30
2023-02-04T20:01:03.838Z,4.92
2023-02-04T20:03:40.715Z,5.23
2023-02-04T20:06:34.520Z,5.07
2023-02-04T20:09:05.526Z,4.18
2023-02-04T20:11:55.577Z,4.71
2023-02-04T20:14:41.134Z,4.22
2023-02-04T20:17:19.788Z,3.76
2023-02-04T20:19:49.018Z,3.40
2023-02-04T20:22:47.592Z,3.52
2023-02-04T20:25:36.978Z,3.91
2023-02-04T20:28:30.214Z,3.95
2023-02-04T20:31:01.122Z,4.08
2023-02-04T20:33:34.779Z,4.01
2023-02-04T20:36:38.586Z,3.95
2023-02-04T20:39:43.773Z,3.96
2023-02-04T20:42:38.531Z,4.54
2023-02-04T20:45:25.680Z,4.27
2023-02-04T20:47:57.510Z,4.22
2023-02-04T20:50:41.703Z,4.52
2023-02-04T20:53:26.053Z,4.42
2023-02-04T20:56:03.620Z,5.39
2023-02-04T20:58:37.223Z,4.82
2023-02-04T21:01:18.773Z,4.87
2023-02-04T21:03:47.033Z,5.02
2023-02-04T21:06:24.458Z,5.39
2023-02-04T21:08:53.810Z,5.49
2023-02-04T21:11:22.839Z,5.21
2023-02-04T21:13:52.472Z,4.76
2023-02-04T21:16:21.046Z,4.01
2023-02-04T21:18:50.778Z,2.37
2023-02-04T21:21:23.273Z,3.98
2023-02-04T21:23:54.150Z,3.71
2023-02-04T21:26:22.384Z,4.30
2023-02-04T21:28:50.659Z,4.22
2023-02-04T21:31:19.745Z,5.01
2023-02-04T21:33:48.245Z,5.31
2023-02-04T21:36:16.570Z,5.44
2023-02-04T21:38:47.216Z,4.47
2023-02-04T21:41:16.638Z,5.08
2023-02-04T21:43:44.948Z,4.98
2023-02-04T21:46:13.262Z,5.13
2023-02-04T21:48:41.528Z,5.07
2023-02-04T21:51:09.775Z,5.34
2023-02-04T21:53:39.116Z,5.44
2023-02-04T21:56:09.746Z,5.67
2023-02-04T21:58:38.617Z,5.36
2023-02-04T22:01:07.243Z,4.65
2023-02-04T22:03:35.530Z,4.80
2023-02-04T22:06:03.817Z,4.75
2023-02-04T22:08:32.133Z,4.85
2023-02-04T22:11:03.018Z,5.09
2023-02-04T22:13:32.672Z,5.14
2023-02-04T22:16:00.993Z,4.91
2023-02-04T22:18:29.866Z,4.65
2023-02-04T22:20:58.095Z,4.57
2023-02-04T22:23:26.456Z,4.75
2023-02-04T22:25:54.725Z,5.04
2023-02-04T22:28:23.049Z,4.51
2023-02-04T22:30:54.226Z,4.48
2023-02-04T22:33:22.714Z,4.36
2023-02-04T22:35:50.967Z,4.42
2023-02-04T22:38:21.117Z,4.67
2023-02-04T22:40:50.233Z,4.72
2023-02-04T22:43:18.451Z,4.77
2023-02-04T22:45:46.692Z,4.14
2023-02-04T22:48:16.473Z,4.19
2023-02-04T22:50:44.749Z,3.95
2023-02-04T22:53:13.081Z,3.88
2023-02-04T22:55:41.434Z,3.97
2023-02-04T22:58:12.578Z,4.31
2023-02-04T23:00:42.058Z,4.00
2023-02-04T23:03:10.513Z,3.88
2023-02-04T23:05:40.331Z,3.85
2023-02-04T23:08:08.703Z,4.14
2023-02-04T23:10:38.858Z,4.44
2023-02-04T23:13:07.415Z,4.42
2023-02-04T23:15:35.990Z,4.13
2023-02-04T23:18:04.508Z,4.32
2023-02-04T23:20:33.002Z,3.82
2023-02-04T23:23:03.007Z,4.10
2023-02-04T23:25:31.516Z,3.66
2023-02-04T23:28:00.010Z,3.80
2023-02-04T23:30:28.404Z,3.80
2023-02-04T23:32:56.638Z,3.87
2023-02-04T23:35:24.930Z,3.62
2023-02-04T23:37:55.719Z,3.88
2023-02-04T23:40:25.826Z,4.03
2023-02-04T23:42:54.149Z,3.50
2023-02-04T23:45:23.390Z,4.07
2023-02-04T23:47:51.735Z,3.72
2023-02-04T23:50:20.302Z,3.92
2023-02-04T23:52:48.657Z,3.60
2023-02-04T23:55:18.453Z,3.71
2023-02-04T23:57:49.945Z,3.48
